North Platte, Nebraska
Current Conditions -  °F | °C
As of 11:53 PM on Saturday 25 Oct 2014 (Local Time) from KLBF Reporting Station
Clear Clear  
Wind Chill: 40°   Ceiling: Unl
Heat Index: 45°   Visibility: 10mi
Dew Point: 41°   Wind: 9mph
Humidity: 86%   Direction: 110°ESE
Pressure: 29.95"   Gusts: NA
Location:  41.14°N, 100.76°W
Report Text: KLBF 260453Z AUTO 11008KT 10SM CLR 07/05 A2995 RMK AO2 SLP135 T00720050
Loading
Personal Weather Stations






























Interactive Weather Map
Tropical Storm Tracking
New forecast layout! Learn more

10-Day Weather Forecast

Advertisements
Track Severe Weather on mobile